Time,TemperatureF,DewpointF,PressureIn,WindDirection,WindDirectionDegrees,WindSpeedMPH,WindSpeedGustMPH,Humidity,HourlyPrecipIn,Conditions,Clouds,dailyrainin,SoftwareType,DateUTC
2014-12-26 00:00:00,31.7,29.7,29.79,East,90,3.6,3.6,92,0.00,,,0.00,WUHU216HW,2014-12-26 06:00:00,
2014-12-26 00:05:00,31.7,29.7,29.79,East,90,6.3,6.3,92,0.00,,,0.00,WUHU216HW,2014-12-26 06:05:00,
2014-12-26 00:30:00,31.9,29.9,29.79,East,90,3.1,3.1,92,0.00,,,0.00,WUHU216HW,2014-12-26 06:30:00,
2014-12-26 00:36:00,31.7,29.7,29.79,East,90,4.7,4.7,92,0.00,,,0.00,WUHU216HW,2014-12-26 06:36:00,
2014-12-26 01:00:00,32.0,30.1,29.79,East,90,4.9,4.9,92,0.00,,,0.00,WUHU216HW,2014-12-26 07:00:00,
2014-12-26 01:05:00,32.0,30.1,29.79,East,90,6.3,6.3,92,0.00,,,0.00,WUHU216HW,2014-12-26 07:05:00,
2014-12-26 01:30:00,32.0,30.1,29.80,East,90,2.5,2.5,92,0.00,,,0.00,WUHU216HW,2014-12-26 07:30:00,
2014-12-26 01:35:00,32.0,30.1,29.80,East,90,2.5,2.5,92,0.00,,,0.00,WUHU216HW,2014-12-26 07:35:00,
2014-12-26 02:00:00,32.2,30.2,29.81,East,90,2.5,2.5,92,0.00,,,0.00,WUHU216HW,2014-12-26 08:00:00,
2014-12-26 02:05:00,32.2,30.2,29.81,East,90,0.9,2.5,92,0.00,,,0.00,WUHU216HW,2014-12-26 08:05:00,
2014-12-26 02:30:00,32.4,30.3,29.81,East,90,3.6,3.6,92,0.00,,,0.00,WUHU216HW,2014-12-26 08:30:00,
2014-12-26 02:35:00,32.2,30.2,29.81,East,90,3.1,4.7,92,0.00,,,0.00,WUHU216HW,2014-12-26 08:35:00,
2014-12-26 03:00:00,32.4,30.3,29.81,East,90,4.5,4.5,92,0.00,,,0.00,WUHU216HW,2014-12-26 09:00:00,
2014-12-26 03:05:00,32.4,30.3,29.81,East,90,4.0,6.9,92,0.00,,,0.00,WUHU216HW,2014-12-26 09:05:00,
2014-12-26 03:30:00,32.6,30.8,29.82,East,90,2.0,2.0,93,0.00,,,0.00,WUHU216HW,2014-12-26 09:30:00,
2014-12-26 03:35:00,32.8,31.0,29.82,East,90,3.4,3.4,93,0.00,,,0.00,WUHU216HW,2014-12-26 09:35:00,
2014-12-26 04:00:00,32.8,30.7,29.82,East,90,2.0,2.0,92,0.00,,,0.00,WUHU216HW,2014-12-26 10:00:00,
2014-12-26 04:05:00,32.8,31.0,29.82,East,90,4.5,4.5,93,0.00,,,0.00,WUHU216HW,2014-12-26 10:05:00,
2014-12-26 04:30:00,32.8,30.7,29.82,East,90,4.7,4.7,92,0.00,,,0.00,WUHU216HW,2014-12-26 10:30:00,
2014-12-26 04:35:00,32.8,30.7,29.82,East,90,4.7,4.7,92,0.00,,,0.00,WUHU216HW,2014-12-26 10:35:00,
2014-12-26 04:40:00,32.8,30.7,29.82,East,90,4.7,4.7,92,0.00,,,0.00,WUHU216HW,2014-12-26 10:40:00,
2014-12-26 05:00:00,32.8,30.7,29.83,East,90,2.5,2.5,92,0.00,,,0.00,WUHU216HW,2014-12-26 11:00:00,
2014-12-26 05:05:00,32.8,30.7,29.83,East,90,2.5,2.5,92,0.00,,,0.00,WUHU216HW,2014-12-26 11:05:00,
2014-12-26 05:30:00,32.8,30.7,29.83,ENE,68,2.7,2.7,92,0.00,,,0.00,WUHU216HW,2014-12-26 11:30:00,
2014-12-26 05:35:00,32.8,30.7,29.83,ENE,68,2.2,2.7,92,0.00,,,0.00,WUHU216HW,2014-12-26 11:35:00,
2014-12-26 06:00:00,32.9,30.9,29.84,ENE,68,5.8,5.8,92,0.00,,,0.00,WUHU216HW,2014-12-26 12:00:00,
2014-12-26 06:05:00,32.9,30.9,29.84,ENE,68,4.5,5.8,92,0.00,,,0.00,WUHU216HW,2014-12-26 12:05:00,
2014-12-26 06:30:00,32.8,30.7,29.85,NE,45,3.8,3.8,92,0.00,,,0.00,WUHU216HW,2014-12-26 12:30:00,
2014-12-26 06:35:00,32.8,30.7,29.86,NE,45,3.8,3.8,92,0.00,,,0.00,WUHU216HW,2014-12-26 12:35:00,
2014-12-26 07:00:00,32.8,30.7,29.87,NE,45,1.8,1.8,92,0.00,,,0.00,WUHU216HW,2014-12-26 13:00:00,
2014-12-26 07:05:00,32.8,30.7,29.87,NE,45,3.4,3.4,92,0.00,,,0.00,WUHU216HW,2014-12-26 13:05:00,
2014-12-26 07:30:00,32.8,30.7,29.89,NE,45,4.9,4.9,92,0.00,,,0.00,WUHU216HW,2014-12-26 13:30:00,
2014-12-26 07:35:00,32.8,30.7,29.90,NE,45,4.9,4.9,92,0.00,,,0.00,WUHU216HW,2014-12-26 13:35:00,
2014-12-26 08:00:00,32.6,30.5,29.91,NE,45,4.7,4.7,92,0.00,,,0.00,WUHU216HW,2014-12-26 14:00:00,
2014-12-26 08:05:00,32.6,30.5,29.91,NE,45,4.7,4.7,92,0.00,,,0.00,WUHU216HW,2014-12-26 14:05:00,
2014-12-26 08:30:00,32.2,30.2,29.91,NE,45,5.4,5.4,92,0.00,,,0.00,WUHU216HW,2014-12-26 14:30:00,
2014-12-26 08:35:00,32.2,30.2,29.91,NE,45,6.3,6.3,92,0.00,,,0.00,WUHU216HW,2014-12-26 14:35:00,
2014-12-26 09:00:00,32.2,30.2,29.92,NE,45,4.0,4.0,92,0.00,,,0.00,WUHU216HW,2014-12-26 15:00:00,
2014-12-26 09:05:00,32.2,30.2,29.92,NE,45,4.7,4.7,92,0.00,,,0.00,WUHU216HW,2014-12-26 15:05:00,
2014-12-26 09:30:00,32.0,30.1,29.94,NE,45,5.8,5.8,92,0.00,,,0.00,WUHU216HW,2014-12-26 15:30:00,
2014-12-26 09:35:00,32.0,30.1,29.94,NE,45,5.8,5.8,92,0.00,,,0.00,WUHU216HW,2014-12-26 15:35:00,
2014-12-26 10:00:00,32.0,29.5,29.95,NE,45,5.4,5.4,90,0.00,,,0.00,WUHU216HW,2014-12-26 16:00:00,
2014-12-26 10:05:00,32.0,29.5,29.95,NE,45,4.7,5.4,90,0.00,,,0.00,WUHU216HW,2014-12-26 16:05:00,
2014-12-26 10:30:00,32.0,29.3,29.96,NE,45,2.7,2.7,89,0.00,,,0.00,WUHU216HW,2014-12-26 16:30:00,
2014-12-26 10:31:00,32.0,29.5,29.96,NE,45,2.2,2.2,90,0.00,,,0.00,WUHU216HW,2014-12-26 16:31:00,
2014-12-26 10:35:00,32.0,29.3,29.96,NE,45,2.7,2.7,89,0.00,,,0.00,WUHU216HW,2014-12-26 16:35:00,
2014-12-26 11:00:00,32.0,29.3,29.96,NE,45,1.8,1.8,89,0.00,,,0.00,WUHU216HW,2014-12-26 17:00:00,
2014-12-26 11:05:00,32.0,29.3,29.96,NE,45,3.4,3.4,89,0.00,,,0.00,WUHU216HW,2014-12-26 17:05:00,
2014-12-26 11:30:00,32.0,29.0,29.95,NE,45,3.6,3.6,88,0.00,,,0.00,WUHU216HW,2014-12-26 17:30:00,
2014-12-26 11:35:00,32.0,29.3,29.95,NE,45,7.4,7.4,89,0.00,,,0.00,WUHU216HW,2014-12-26 17:35:00,
2014-12-26 12:00:00,32.0,29.0,29.96,NE,45,5.1,5.1,88,0.00,,,0.00,WUHU216HW,2014-12-26 18:00:00,
2014-12-26 12:05:00,32.0,29.0,29.96,NE,45,7.8,7.8,88,0.00,,,0.00,WUHU216HW,2014-12-26 18:05:00,
2014-12-26 12:30:00,32.4,29.0,29.95,NE,45,2.9,2.9,87,0.00,,,0.00,WUHU216HW,2014-12-26 18:30:00,
2014-12-26 12:35:00,32.6,29.2,29.95,NE,45,3.1,3.1,87,0.00,,,0.00,WUHU216HW,2014-12-26 18:35:00,
2014-12-26 12:59:00,32.8,29.0,29.94,North,0,3.4,3.4,86,0.00,,,0.00,WUHU216HW,2014-12-26 18:59:00,
2014-12-26 13:00:00,32.8,29.0,29.94,North,0,3.4,3.4,86,0.00,,,0.00,WUHU216HW,2014-12-26 19:00:00,
2014-12-26 13:05:00,32.8,29.0,29.94,North,0,3.4,3.4,86,0.00,,,0.00,WUHU216HW,2014-12-26 19:05:00,
2014-12-26 13:30:00,32.8,29.0,29.95,North,0,5.4,5.4,86,0.00,,,0.00,WUHU216HW,2014-12-26 19:30:00,
2014-12-26 13:35:00,32.8,29.0,29.95,North,0,3.6,5.4,86,0.00,,,0.00,WUHU216HW,2014-12-26 19:35:00,
2014-12-26 13:40:00,32.8,29.0,29.95,North,0,3.6,3.6,86,0.00,,,0.00,WUHU216HW,2014-12-26 19:40:00,
2014-12-26 14:00:00,32.8,29.0,29.96,North,0,4.7,4.7,86,0.00,,,0.00,WUHU216HW,2014-12-26 20:00:00,
2014-12-26 14:05:00,32.6,28.9,29.96,North,0,3.1,4.7,86,0.00,,,0.00,WUHU216HW,2014-12-26 20:05:00,
2014-12-26 14:30:00,32.6,28.5,29.96,North,0,4.0,4.0,85,0.00,,,0.00,WUHU216HW,2014-12-26 20:30:00,
2014-12-26 14:35:00,32.8,29.0,29.96,North,0,4.0,4.0,86,0.00,,,0.00,WUHU216HW,2014-12-26 20:35:00,
2014-12-26 15:00:00,32.6,28.5,29.96,North,0,7.8,7.8,85,0.00,,,0.00,WUHU216HW,2014-12-26 21:00:00,
2014-12-26 15:05:00,32.6,28.5,29.96,North,0,5.4,7.8,85,0.00,,,0.00,WUHU216HW,2014-12-26 21:05:00,
2014-12-26 15:30:00,32.4,28.5,29.97,North,0,7.6,7.6,85,0.00,,,0.00,WUHU216HW,2014-12-26 21:30:00,
2014-12-26 15:35:00,32.4,28.5,29.97,North,0,7.6,7.6,85,0.00,,,0.00,WUHU216HW,2014-12-26 21:35:00,
2014-12-26 16:00:00,32.2,28.0,29.97,North,0,4.7,4.7,84,0.00,,,0.00,WUHU216HW,2014-12-26 22:00:00,
2014-12-26 16:05:00,32.2,28.0,29.97,North,0,9.2,9.2,84,0.00,,,0.00,WUHU216HW,2014-12-26 22:05:00,
2014-12-26 16:30:00,32.0,28.1,29.99,North,0,2.0,2.0,85,0.00,,,0.00,WUHU216HW,2014-12-26 22:30:00,
2014-12-26 16:35:00,32.0,28.1,29.99,North,0,7.6,7.6,85,0.00,,,0.00,WUHU216HW,2014-12-26 22:35:00,